Time;durP1;ratioP1;P1;durP2;ratioP2;P2;SDS_P1;SDS_P2;PMS_P1;PMS_P2;Temp;Humidity;BMP_temperature;BMP_pressure;BME280_temperature;BME280_humidity;BME280_pressure;Samples;Min_cycle;Max_cycle;Signal;HPM_P1;HPM_P2
2023/08/20 00:00:41;;;;;;;10.70;5.50;;;;;;;20.75;100.00;100591.73;105359;1260;65738;-66
2023/08/20 00:03:11;;;;;;;8.00;4.50;;;;;;;20.70;100.00;100586.41;105383;1263;73286;-63
2023/08/20 00:05:40;;;;;;;13.60;5.20;;;;;;;20.66;100.00;100586.73;105283;1261;59817;-63
2023/08/20 00:08:07;;;;;;;16.50;5.30;;;;;;;20.62;100.00;100585.56;105576;1257;60249;-63
2023/08/20 00:10:35;;;;;;;8.90;5.00;;;;;;;20.59;100.00;100584.98;105455;1260;73062;-67
2023/08/20 00:13:04;;;;;;;6.60;4.40;;;;;;;20.58;100.00;100581.95;105767;1261;67133;-66
2023/08/20 00:15:32;;;;;;;7.30;3.80;;;;;;;20.58;100.00;100582.15;105437;1260;73096;-64
2023/08/20 00:18:00;;;;;;;11.40;4.60;;;;;;;20.59;100.00;100579.67;105484;1257;61728;-63
2023/08/20 00:20:28;;;;;;;9.20;3.80;;;;;;;20.59;100.00;100572.00;105687;1257;60110;-65
2023/08/20 00:22:57;;;;;;;9.70;3.60;;;;;;;20.59;100.00;100569.98;105179;1260;73097;-64
2023/08/20 00:25:25;;;;;;;5.40;3.10;;;;;;;20.61;100.00;100561.29;105443;1260;66123;-64
2023/08/20 00:27:52;;;;;;;7.60;3.70;;;;;;;20.62;100.00;100562.99;105338;1257;71443;-65
2023/08/20 00:30:21;;;;;;;8.50;3.60;;;;;;;20.61;100.00;100558.86;105474;1270;60105;-63
2023/08/20 00:32:49;;;;;;;8.90;3.20;;;;;;;20.61;100.00;100556.25;105372;1257;60150;-63
2023/08/20 00:35:17;;;;;;;6.50;3.40;;;;;;;20.59;100.00;100555.69;105669;1260;72969;-66
2023/08/20 00:37:45;;;;;;;6.00;2.70;;;;;;;20.57;100.00;100552.48;105154;1261;66783;-63
2023/08/20 00:40:13;;;;;;;5.70;3.40;;;;;;;20.55;100.00;100550.23;105335;1261;71451;-63
2023/08/20 00:42:41;;;;;;;5.50;3.10;;;;;;;20.52;100.00;100550.19;105340;1270;61427;-64
2023/08/20 00:45:09;;;;;;;9.30;3.20;;;;;;;20.49;100.00;100547.02;105199;1261;61113;-67
2023/08/20 00:47:37;;;;;;;7.00;3.10;;;;;;;20.46;100.00;100544.33;105116;1255;72430;-64
2023/08/20 00:50:06;;;;;;;9.20;3.20;;;;;;;20.43;100.00;100543.76;105203;1260;67039;-63
2023/08/20 00:52:34;;;;;;;7.40;3.40;;;;;;;20.40;100.00;100546.30;105467;1260;72661;-65
2023/08/20 00:55:09;;;;;;;7.40;3.00;;;;;;;20.39;100.00;100546.48;105490;1257;60108;-63
2023/08/20 00:57:37;;;;;;;7.00;3.40;;;;;;;20.37;100.00;100555.40;105218;1260;59532;-64
2023/08/20 01:00:07;;;;;;;7.50;4.20;;;;;;;20.33;100.00;100563.20;105422;1261;73029;-63
2023/08/20 01:02:35;;;;;;;9.70;4.70;;;;;;;20.29;100.00;100563.02;105364;1257;67209;-63
2023/08/20 01:05:05;;;;;;;9.30;5.10;;;;;;;20.22;100.00;100553.48;105553;1256;71465;-63
2023/08/20 01:07:43;;;;;;;9.60;4.40;;;;;;;20.13;100.00;100551.64;105183;1261;62240;-63
2023/08/20 01:10:52;;;;;;;14.00;4.50;;;;;;;20.06;100.00;100555.73;105536;1257;60631;-65
2023/08/20 01:13:19;;;;;;;12.70;4.00;;;;;;;19.98;100.00;100559.40;106106;1257;71857;-66
2023/08/20 01:15:48;;;;;;;9.80;4.90;;;;;;;19.93;100.00;100554.05;105350;1255;67842;-63
2023/08/20 01:18:16;;;;;;;8.90;4.00;;;;;;;19.93;100.00;100552.23;105447;1257;72749;-63
2023/08/20 01:21:01;;;;;;;6.30;3.20;;;;;;;19.93;100.00;100550.80;105561;1259;59533;-68
2023/08/20 01:24:22;;;;;;;6.20;3.90;;;;;;;19.97;100.00;100543.20;105532;1259;60370;-64
2023/08/20 01:27:16;;;;;;;9.50;3.40;;;;;;;19.99;100.00;100540.52;105190;1254;74196;-63
2023/08/20 01:29:44;;;;;;;6.50;3.20;;;;;;;20.00;100.00;100542.27;105057;1260;65851;-64
2023/08/20 01:32:12;;;;;;;8.40;3.40;;;;;;;20.05;100.00;100544.19;105419;1254;72716;-65
2023/08/20 01:34:39;;;;;;;6.00;3.50;;;;;;;20.10;100.00;100540.16;105649;1260;60007;-64
2023/08/20 01:37:07;;;;;;;9.70;4.10;;;;;;;20.12;100.00;100539.61;105656;1257;59487;-66
2023/08/20 01:39:35;;;;;;;9.30;3.60;;;;;;;20.11;100.00;100537.89;105561;1259;73954;-65
2023/08/20 01:42:05;;;;;;;5.70;3.80;;;;;;;20.08;100.00;100545.25;105583;1261;65739;-65
2023/08/20 01:44:33;;;;;;;10.30;4.40;;;;;;;20.04;100.00;100549.58;105339;1260;72693;-64
2023/08/20 01:47:02;;;;;;;5.00;3.60;;;;;;;19.99;100.00;100545.71;105702;1256;60091;-64
2023/08/20 01:49:30;;;;;;;8.70;3.90;;;;;;;19.91;100.00;100548.13;105648;1251;59013;-66
2023/08/20 01:51:57;;;;;;;6.90;3.80;;;;;;;19.85;100.00;100547.69;105709;1256;73096;-63
2023/08/20 01:54:26;;;;;;;12.80;4.60;;;;;;;19.81;100.00;100551.59;105896;1252;65537;-64
2023/08/20 01:56:53;;;;;;;6.70;4.10;;;;;;;19.77;100.00;100556.91;105767;1251;72691;-65
2023/08/20 01:59:23;;;;;;;6.50;3.70;;;;;;;19.74;100.00;100557.65;105743;1257;59695;-64
2023/08/20 02:01:50;;;;;;;7.00;4.70;;;;;;;19.67;100.00;100561.92;105810;1251;60443;-63
2023/08/20 02:04:18;;;;;;;7.50;4.20;;;;;;;19.62;100.00;100567.36;105660;1257;73083;-64
2023/08/20 02:06:46;;;;;;;8.20;4.10;;;;;;;19.55;100.00;100565.89;105776;1254;65622;-65
2023/08/20 02:09:14;;;;;;;14.00;4.80;;;;;;;19.51;100.00;100566.88;105692;1257;72667;-65
2023/08/20 02:11:42;;;;;;;7.80;4.70;;;;;;;19.49;100.00;100568.98;105899;1257;60215;-68
2023/08/20 02:14:09;;;;;;;9.70;4.50;;;;;;;19.45;100.00;100573.30;105808;1251;59744;-64
2023/08/20 02:16:37;;;;;;;10.70;5.50;;;;;;;19.42;100.00;100579.42;105734;1251;73694;-63
2023/08/20 02:19:06;;;;;;;9.40;5.00;;;;;;;19.39;100.00;100583.11;105919;1266;66920;-67
2023/08/20 02:21:34;;;;;;;11.80;5.30;;;;;;;19.34;100.00;100589.08;105680;1251;73497;-64
2023/08/20 02:24:02;;;;;;;12.90;5.10;;;;;;;19.31;100.00;100592.40;105391;1257;61774;-64
2023/08/20 02:26:29;;;;;;;13.50;5.60;;;;;;;19.30;100.00;100593.88;105873;1251;60104;-64
2023/08/20 02:28:57;;;;;;;9.90;5.10;;;;;;;19.30;100.00;100595.14;105647;1257;72889;-64
2023/08/20 02:31:25;;;;;;;10.30;6.10;;;;;;;19.30;100.00;100598.41;105546;1251;67461;-65
2023/08/20 02:33:57;;;;;;;10.30;4.90;;;;;;;19.27;100.00;100602.11;105807;1257;73053;-65
2023/08/20 02:36:25;;;;;;;11.20;5.90;;;;;;;19.24;100.00;100603.18;105912;1254;61709;-64
2023/08/20 02:38:53;;;;;;;8.20;4.80;;;;;;;19.23;100.00;100604.59;105766;1251;60162;-64
2023/08/20 02:41:20;;;;;;;11.20;5.40;;;;;;;19.21;100.00;100610.64;105687;1256;73812;-63
2023/08/20 02:43:48;;;;;;;9.90;5.00;;;;;;;19.19;100.00;100613.46;105930;1252;65959;-66
2023/08/20 02:46:16;;;;;;;11.70;4.90;;;;;;;19.18;100.00;100610.11;105848;1256;71237;-64
2023/08/20 02:48:44;;;;;;;7.10;4.10;;;;;;;19.18;100.00;100607.32;105790;1254;60607;-64
2023/08/20 02:51:12;;;;;;;11.30;4.60;;;;;;;19.18;100.00;100602.76;105993;1256;59616;-65
2023/08/20 03:01:26;;;;;;;8.30;4.50;;;;;;;19.33;100.00;100598.16;102381;1294;600517;-64
2023/08/20 03:03:55;;;;;;;12.70;4.30;;;;;;;19.37;100.00;100598.95;104963;1266;61760;-63
2023/08/20 03:06:23;;;;;;;7.30;4.00;;;;;;;19.46;100.00;100597.75;104886;1264;60174;-63
2023/08/20 03:08:50;;;;;;;7.00;4.10;;;;;;;19.57;100.00;100595.23;104901;1268;72680;-63
2023/08/20 03:11:18;;;;;;;7.00;4.20;;;;;;;19.68;100.00;100597.64;104769;1269;66903;-64
2023/08/20 03:13:46;;;;;;;8.40;4.60;;;;;;;19.77;100.00;100595.90;105047;1278;72493;-63
2023/08/20 03:16:14;;;;;;;8.80;4.50;;;;;;;19.84;100.00;100592.96;104902;1264;206957;-62
2023/08/20 03:18:42;;;;;;;12.50;4.50;;;;;;;19.89;100.00;100586.18;105087;1262;60107;-64
2023/08/20 03:21:10;;;;;;;8.10;4.40;;;;;;;19.96;100.00;100585.79;105354;1265;72392;-65
2023/08/20 03:23:37;;;;;;;9.00;4.50;;;;;;;20.05;100.00;100585.09;104922;1266;66978;-63
2023/08/20 03:26:05;;;;;;;8.40;4.60;;;;;;;20.12;100.00;100581.42;105074;1266;72616;-64
2023/08/20 03:28:33;;;;;;;9.70;4.70;;;;;;;20.26;100.00;100585.14;105084;1266;60046;-63
2023/08/20 03:31:01;;;;;;;7.60;4.70;;;;;;;20.53;100.00;100578.89;105149;1261;60053;-63
2023/08/20 03:33:32;;;;;;;13.30;5.00;;;;;;;20.83;100.00;100567.59;104913;1260;71875;-64
2023/08/20 03:35:59;;;;;;;8.00;4.50;;;;;;;21.21;100.00;100560.80;105237;1267;65820;-66
2023/08/20 03:38:27;;;;;;;9.00;4.40;;;;;;;21.84;100.00;100559.84;105147;1266;72772;-65
2023/08/20 03:40:56;;;;;;;8.40;3.80;;;;;;;22.67;100.00;100550.89;105097;1267;60008;-64
2023/08/20 03:43:25;;;;;;;16.20;4.90;;;;;;;23.58;100.00;100544.58;106051;1256;60103;-67
2023/08/20 03:45:53;;;;;;;11.30;4.50;;;;;;;24.52;100.00;100532.42;105853;1251;73135;-68
2023/08/20 03:48:22;;;;;;;7.40;5.00;;;;;;;25.51;100.00;100523.30;106022;1251;65344;-66
2023/08/20 03:50:49;;;;;;;9.40;4.50;;;;;;;26.45;100.00;100516.73;105983;1252;71479;-65
2023/08/20 03:53:17;;;;;;;11.40;5.10;;;;;;;27.27;100.00;100516.05;106075;1252;59500;-64
2023/08/20 03:55:49;;;;;;;7.60;5.50;;;;;;;28.05;100.00;100511.66;105885;1253;59641;-67
2023/08/20 03:58:17;;;;;;;7.50;4.70;;;;;;;28.95;100.00;100506.89;106005;1253;73470;-65
2023/08/20 04:00:44;;;;;;;9.70;4.60;;;;;;;29.83;100.00;100504.58;105775;1256;67394;-64
2023/08/20 04:03:13;;;;;;;8.50;4.90;;;;;;;30.60;100.00;100501.02;105990;1251;72692;-64
2023/08/20 04:05:41;;;;;;;6.00;4.60;;;;;;;31.27;100.00;100501.14;105896;1257;60562;-66
2023/08/20 04:08:09;;;;;;;8.10;4.30;;;;;;;32.03;100.00;100500.33;105589;1249;59567;-63
2023/08/20 04:10:46;;;;;;;9.10;4.80;;;;;;;32.76;99.36;100498.29;105919;1251;73453;-64
2023/08/20 04:21:01;;;;;;;7.10;4.50;;;;;;;34.47;72.57;100490.19;102357;1292;600694;-66
2023/08/20 04:23:29;;;;;;;8.20;3.80;;;;;;;34.91;67.33;100490.23;104916;1271;59321;-63
2023/08/20 04:25:57;;;;;;;7.90;4.50;;;;;;;35.26;60.54;100491.05;104868;1271;59357;-65
2023/08/20 04:28:25;;;;;;;7.60;4.50;;;;;;;35.59;58.35;100486.55;104967;1271;62230;-63
2023/08/20 04:30:54;;;;;;;8.30;4.50;;;;;;;36.09;54.73;100486.23;104937;1266;59258;-67
2023/08/20 04:33:22;;;;;;;8.60;4.70;;;;;;;36.53;49.28;100491.52;105032;1272;62616;-64
2023/08/20 04:35:50;;;;;;;7.20;4.10;;;;;;;36.79;46.59;100493.55;104753;1263;212426;-64
2023/08/20 04:38:18;;;;;;;7.60;3.70;;;;;;;37.08;44.48;100490.87;104920;1268;59801;-64
2023/08/20 04:40:47;;;;;;;7.50;4.90;;;;;;;37.48;43.03;100488.12;105161;1262;63361;-65
2023/08/20 04:43:15;;;;;;;7.20;4.40;;;;;;;37.92;40.65;100481.70;104964;1263;59344;-65
2023/08/20 04:45:43;;;;;;;6.40;4.30;;;;;;;38.13;39.18;100483.77;104981;1268;62499;-63
2023/08/20 04:48:12;;;;;;;10.10;4.90;;;;;;;38.09;37.60;100478.96;104907;1266;59514;-62
2023/08/20 04:50:40;;;;;;;7.10;4.70;;;;;;;37.85;35.59;100478.46;104953;1266;59622;-62
2023/08/20 04:53:08;;;;;;;7.20;4.60;;;;;;;37.64;36.81;100484.53;104696;1268;64233;-63
2023/08/20 04:55:36;;;;;;;7.70;5.20;;;;;;;37.68;36.52;100485.61;104639;1271;59692;-64
2023/08/20 04:58:03;;;;;;;9.90;4.60;;;;;;;37.69;35.06;100486.02;104716;1262;63792;-63
2023/08/20 05:00:32;;;;;;;6.90;4.60;;;;;;;37.63;35.07;100483.50;104913;1268;60263;-63
2023/08/20 05:03:10;;;;;;;6.50;4.70;;;;;;;37.64;35.08;100482.58;105255;1268;59748;-64
2023/08/20 05:05:38;;;;;;;7.30;4.70;;;;;;;37.65;34.52;100486.89;104709;1263;64324;-63
2023/08/20 05:08:06;;;;;;;7.50;5.20;;;;;;;37.47;35.43;100486.08;104876;1268;59724;-66
2023/08/20 05:10:38;;;;;;;7.20;5.30;;;;;;;37.32;35.35;100486.23;105064;1268;66395;-65
2023/08/20 05:13:06;;;;;;;9.70;5.90;;;;;;;37.18;36.07;100489.29;104981;1263;59653;-67
2023/08/20 05:15:34;;;;;;;11.00;6.00;;;;;;;37.24;35.74;100485.84;104889;1268;59675;-62
2023/08/20 05:18:02;;;;;;;7.80;4.80;;;;;;;37.36;35.02;100487.16;105014;1268;64232;-64
2023/08/20 05:20:30;;;;;;;8.50;5.10;;;;;;;37.34;34.30;100486.04;104992;1268;59685;-66
2023/08/20 05:22:58;;;;;;;5.60;4.30;;;;;;;37.37;33.82;100487.71;104739;1268;64303;-63
2023/08/20 05:25:26;;;;;;;7.40;4.50;;;;;;;37.38;33.19;100488.38;105124;1263;60061;-65
2023/08/20 05:27:54;;;;;;;5.90;4.10;;;;;;;37.36;33.16;100491.19;104891;1263;59550;-65
2023/08/20 05:30:22;;;;;;;5.10;3.50;;;;;;;37.22;32.91;100495.75;104999;1263;62990;-62
2023/08/20 05:32:50;;;;;;;6.60;4.20;;;;;;;36.85;33.06;100494.27;105059;1263;59651;-65
2023/08/20 05:35:18;;;;;;;7.50;4.30;;;;;;;36.55;33.43;100495.21;105176;1268;62531;-66
2023/08/20 05:37:45;;;;;;;7.00;3.60;;;;;;;36.42;33.40;100491.63;104934;1269;59686;-62
2023/08/20 05:40:13;;;;;;;6.90;3.70;;;;;;;36.34;33.04;100493.84;104892;1263;59698;-62
2023/08/20 05:42:41;;;;;;;9.30;3.60;;;;;;;36.18;33.23;100492.52;104911;1263;62990;-64
2023/08/20 05:45:10;;;;;;;9.20;4.00;;;;;;;36.01;33.34;100489.54;105247;1265;59605;-62
2023/08/20 05:47:38;;;;;;;6.50;3.40;;;;;;;35.83;33.90;100489.66;105086;1262;63384;-63
2023/08/20 05:50:08;;;;;;;6.40;3.90;;;;;;;35.83;34.40;100489.83;105233;1264;60019;-65
2023/08/20 05:52:36;;;;;;;6.40;3.20;;;;;;;36.01;34.77;100487.98;105158;1261;59807;-66
2023/08/20 05:55:04;;;;;;;5.20;3.80;;;;;;;36.15;34.34;100489.58;105344;1264;63565;-65
2023/08/20 05:57:36;;;;;;;7.10;3.70;;;;;;;36.19;34.38;100488.19;105279;1260;66976;-65
2023/08/20 06:00:05;;;;;;;5.60;3.60;;;;;;;36.33;34.44;100485.19;105152;1260;64013;-63
2023/08/20 06:02:39;;;;;;;4.70;3.50;;;;;;;36.42;33.98;100485.42;105129;1259;59599;-63
2023/08/20 06:05:08;;;;;;;6.70;3.30;;;;;;;36.42;33.70;100486.20;105491;1264;59585;-66
2023/08/20 06:07:35;;;;;;;5.80;3.50;;;;;;;36.36;35.08;100482.17;105071;1265;73110;-63
2023/08/20 06:10:03;;;;;;;5.50;3.20;;;;;;;36.53;34.28;100482.43;105142;1266;59568;-63
2023/08/20 06:12:31;;;;;;;6.20;3.60;;;;;;;36.64;33.58;100481.12;105199;1260;63790;-63
2023/08/20 06:14:59;;;;;;;7.80;3.80;;;;;;;36.72;33.87;100480.30;105642;1264;59713;-66
2023/08/20 06:17:27;;;;;;;5.40;3.80;;;;;;;36.87;34.09;100481.95;105217;1261;59715;-65
2023/08/20 06:19:55;;;;;;;7.00;3.70;;;;;;;37.15;33.80;100481.85;105173;1264;64160;-63
2023/08/20 06:22:23;;;;;;;6.50;4.10;;;;;;;37.44;33.40;100480.12;105213;1262;59547;-63
2023/08/20 06:24:50;;;;;;;5.00;4.30;;;;;;;37.64;33.07;100479.77;105301;1266;62557;-63
2023/08/20 06:27:18;;;;;;;5.50;4.40;;;;;;;37.69;32.59;100478.71;105349;1273;60787;-68
2023/08/20 06:29:46;;;;;;;6.80;4.50;;;;;;;37.69;31.77;100477.09;105381;1265;59709;-64
2023/08/20 06:32:13;;;;;;;7.80;4.40;;;;;;;37.66;32.21;100477.19;105231;1263;64294;-66
2023/08/20 06:34:41;;;;;;;5.60;4.30;;;;;;;37.75;32.92;100472.45;105311;1265;59273;-63
2023/08/20 06:37:09;;;;;;;6.40;5.10;;;;;;;38.05;33.16;100470.02;105397;1260;63362;-64
2023/08/20 06:39:37;;;;;;;6.50;4.70;;;;;;;38.41;32.00;100472.48;105372;1264;59609;-64
2023/08/20 06:42:05;;;;;;;8.40;5.00;;;;;;;38.60;30.45;100472.99;104981;1264;59725;-63
2023/08/20 06:44:32;;;;;;;9.10;5.00;;;;;;;38.60;30.11;100473.29;105185;1264;64263;-63
2023/08/20 06:47:00;;;;;;;5.80;4.10;;;;;;;38.52;29.88;100470.06;105339;1263;59844;-65
2023/08/20 06:49:28;;;;;;;7.60;4.60;;;;;;;38.50;30.39;100469.02;105511;1265;63840;-65
2023/08/20 06:51:56;;;;;;;7.50;4.50;;;;;;;38.67;30.51;100470.59;105067;1261;59696;-63
2023/08/20 06:54:24;;;;;;;5.90;4.30;;;;;;;38.75;30.32;100475.91;105275;1259;59569;-63
2023/08/20 06:56:52;;;;;;;7.70;4.10;;;;;;;38.82;30.33;100470.11;105303;1260;62882;-65
2023/08/20 06:59:20;;;;;;;11.00;6.00;;;;;;;38.92;29.97;100471.02;105448;1262;59730;-67
2023/08/20 07:01:47;;;;;;;8.60;4.70;;;;;;;38.96;29.43;100468.66;105329;1263;63844;-66
2023/08/20 07:04:15;;;;;;;9.40;4.80;;;;;;;39.05;29.21;100465.27;105311;1262;59623;-63
2023/08/20 07:06:43;;;;;;;6.60;4.90;;;;;;;39.24;29.64;100460.98;105429;1257;59736;-63
2023/08/20 07:09:11;;;;;;;10.80;4.70;;;;;;;39.35;29.06;100457.67;105366;1262;64196;-66
2023/08/20 07:11:39;;;;;;;7.70;4.80;;;;;;;39.29;29.09;100458.00;105189;1258;59654;-64
2023/08/20 07:14:07;;;;;;;8.30;5.00;;;;;;;39.33;29.02;100455.16;105305;1263;62840;-64
2023/08/20 07:16:35;;;;;;;6.40;4.40;;;;;;;39.57;29.15;100455.48;105296;1263;59679;-63
2023/08/20 07:19:03;;;;;;;6.40;4.30;;;;;;;39.79;28.50;100449.94;105359;1262;59654;-64
2023/08/20 07:21:31;;;;;;;6.30;4.20;;;;;;;39.92;27.79;100448.72;105496;1259;64203;-68
2023/08/20 07:23:59;;;;;;;7.00;4.20;;;;;;;39.94;27.98;100443.42;105266;1263;59682;-67
2023/08/20 07:26:26;;;;;;;6.10;5.10;;;;;;;40.06;28.05;100445.17;105262;1262;63923;-62
2023/08/20 07:28:57;;;;;;;7.40;4.70;;;;;;;40.15;27.84;100445.41;105297;1263;59626;-66
2023/08/20 07:31:29;;;;;;;7.10;4.50;;;;;;;40.26;27.22;100446.73;105325;1262;59637;-67
2023/08/20 07:33:58;;;;;;;7.00;5.10;;;;;;;40.32;26.37;100445.84;105360;1263;64849;-65
2023/08/20 07:36:31;;;;;;;9.30;5.20;;;;;;;40.30;26.45;100443.88;105694;1258;59599;-63
2023/08/20 07:39:00;;;;;;;7.50;4.80;;;;;;;40.21;26.68;100440.14;105841;1257;62666;-64
2023/08/20 07:41:28;;;;;;;10.80;5.00;;;;;;;40.11;26.59;100438.19;105976;1256;59620;-65
2023/08/20 07:43:56;;;;;;;7.70;5.00;;;;;;;40.09;26.76;100438.41;105489;1253;59771;-64
2023/08/20 07:46:24;;;;;;;8.30;4.80;;;;;;;40.17;27.09;100440.50;105479;1253;64814;-63
2023/08/20 07:48:51;;;;;;;8.00;4.50;;;;;;;40.41;27.10;100437.15;105702;1256;59781;-63
2023/08/20 07:59:05;;;;;;;6.40;4.60;;;;;;;40.68;24.86;100433.88;102615;1291;600016;-64
2023/08/20 08:01:33;;;;;;;6.70;3.90;;;;;;;40.53;24.35;100431.77;105098;1272;59296;-67
2023/08/20 08:04:01;;;;;;;6.50;4.30;;;;;;;40.34;24.42;100433.44;104724;1269;59284;-64
2023/08/20 08:06:29;;;;;;;7.20;3.50;;;;;;;40.38;24.96;100432.53;105026;1266;63363;-64
2023/08/20 08:08:56;;;;;;;5.30;3.10;;;;;;;40.64;23.47;100428.93;105328;1263;59338;-64
2023/08/20 08:11:24;;;;;;;4.60;3.20;;;;;;;40.83;22.07;100427.15;105236;1266;62511;-65
2023/08/20 08:13:52;;;;;;;5.60;3.40;;;;;;;40.83;21.75;100427.23;105568;1260;185600;-66
2023/08/20 08:16:19;;;;;;;6.00;3.60;;;;;;;40.73;21.68;100421.57;105345;1259;59209;-64
2023/08/20 08:18:47;;;;;;;5.60;3.50;;;;;;;40.65;21.84;100422.94;105506;1257;63428;-66
2023/08/20 08:21:15;;;;;;;8.40;4.70;;;;;;;40.59;22.40;100420.56;105426;1270;59221;-64
2023/08/20 08:23:43;;;;;;;5.30;3.10;;;;;;;40.56;22.52;100416.10;105600;1267;63827;-62
2023/08/20 08:26:10;;;;;;;4.80;3.40;;;;;;;40.64;21.71;100416.91;105419;1261;59796;-62
2023/08/20 08:28:38;;;;;;;5.70;3.00;;;;;;;40.67;20.75;100414.36;105545;1270;59559;-62
2023/08/20 08:31:06;;;;;;;5.80;3.70;;;;;;;40.62;20.92;100413.71;105384;1255;63688;-61
2023/08/20 08:33:34;;;;;;;5.50;3.70;;;;;;;40.53;20.96;100410.52;105547;1260;59625;-62
2023/08/20 08:36:02;;;;;;;6.10;3.50;;;;;;;40.40;21.30;100406.09;105596;1260;63501;-63
2023/08/20 08:38:30;;;;;;;7.60;3.80;;;;;;;40.35;21.36;100406.76;105290;1258;59698;-62
2023/08/20 08:40:58;;;;;;;4.90;3.10;;;;;;;40.37;21.26;100404.34;105408;1260;59642;-64
2023/08/20 08:43:25;;;;;;;8.20;3.60;;;;;;;40.35;21.16;100401.38;105491;1256;63030;-65
2023/08/20 08:45:54;;;;;;;5.30;3.70;;;;;;;40.32;21.81;100401.13;105481;1259;59640;-66
2023/08/20 08:48:22;;;;;;;4.90;3.80;;;;;;;40.37;22.13;100400.44;105478;1257;62533;-64
2023/08/20 08:50:49;;;;;;;7.90;4.00;;;;;;;40.42;22.16;100396.48;105230;1263;59721;-63
2023/08/20 08:53:17;;;;;;;6.90;3.90;;;;;;;40.42;21.81;100395.63;105157;1257;59694;-63
2023/08/20 08:55:45;;;;;;;6.50;3.40;;;;;;;40.25;21.29;100391.88;105672;1258;62921;-66
2023/08/20 08:58:13;;;;;;;4.80;3.00;;;;;;;40.05;21.13;100395.70;105890;1257;59771;-63
2023/08/20 09:00:41;;;;;;;5.30;3.60;;;;;;;39.91;21.38;100389.84;105193;1260;63893;-65
2023/08/20 09:03:09;;;;;;;6.70;3.30;;;;;;;39.86;21.01;100388.33;105514;1261;59660;-62
2023/08/20 09:05:50;;;;;;;5.00;3.20;;;;;;;39.80;20.91;100389.29;105405;1260;59688;-65
2023/08/20 09:08:28;;;;;;;4.40;3.10;;;;;;;39.73;21.10;100389.39;105358;1257;64273;-64
2023/08/20 09:10:57;;;;;;;5.90;3.30;;;;;;;39.63;21.04;100383.75;105437;1257;59528;-65
2023/08/20 09:13:45;;;;;;;5.70;2.60;;;;;;;39.65;21.46;100384.94;105670;1258;62655;-65
2023/08/20 09:16:13;;;;;;;5.10;2.90;;;;;;;39.80;21.42;100382.89;105384;1260;59905;-62
2023/08/20 09:18:42;;;;;;;6.50;3.50;;;;;;;39.92;21.48;100383.84;105501;1257;59893;-63
2023/08/20 09:21:13;;;;;;;5.50;3.20;;;;;;;39.94;21.40;100384.55;108948;1257;62901;-66
2023/08/20 09:23:45;;;;;;;5.80;2.80;;;;;;;39.97;21.70;100385.50;108980;1256;57434;-64
2023/08/20 09:26:14;;;;;;;4.40;2.80;;;;;;;40.07;21.51;100385.81;108981;1257;64368;-66
2023/08/20 09:28:45;;;;;;;5.20;3.10;;;;;;;40.23;21.22;100386.09;108945;1256;57428;-62
2023/08/20 09:31:14;;;;;;;6.90;2.90;;;;;;;40.37;21.32;100387.10;109010;1256;57668;-62
2023/08/20 09:34:00;;;;;;;4.80;2.60;;;;;;;40.36;21.32;100382.10;108964;1256;63087;-62
2023/08/20 09:36:32;;;;;;;6.40;2.80;;;;;;;40.42;21.57;100380.48;108956;1256;58180;-61
2023/08/20 09:39:03;;;;;;;5.40;2.80;;;;;;;40.53;21.12;100378.60;109042;1256;64826;-64
2023/08/20 09:41:31;;;;;;;4.00;2.60;;;;;;;40.62;20.77;100380.30;108940;1256;57325;-63
2023/08/20 09:43:59;;;;;;;6.00;2.30;;;;;;;40.50;19.49;100377.89;108849;1256;57425;-62
2023/08/20 09:46:31;;;;;;;5.20;2.30;;;;;;;40.20;19.88;100378.18;108897;1256;64230;-63
2023/08/20 09:48:59;;;;;;;3.70;2.00;;;;;;;40.04;20.15;100382.35;108915;1256;57488;-64
2023/08/20 09:51:28;;;;;;;3.70;2.10;;;;;;;39.92;19.49;100380.56;108882;1256;63768;-64
2023/08/20 09:54:01;;;;;;;4.00;2.50;;;;;;;39.79;19.16;100372.20;109005;1256;59737;-64
2023/08/20 09:56:30;;;;;;;5.40;2.40;;;;;;;39.71;19.59;100373.70;108885;1255;57382;-63
2023/08/20 09:58:58;;;;;;;3.80;2.10;;;;;;;39.70;19.52;100369.40;108942;1256;63241;-61
2023/08/20 10:01:26;;;;;;;3.70;2.00;;;;;;;39.62;20.09;100366.81;108940;1255;57915;-62
2023/08/20 10:03:54;;;;;;;3.70;1.90;;;;;;;39.65;20.06;100368.88;108919;1257;63088;-64
2023/08/20 10:06:21;;;;;;;3.60;2.00;;;;;;;39.75;19.35;100369.91;108913;1256;60282;-62
2023/08/20 10:08:51;;;;;;;3.90;1.90;;;;;;;39.84;19.22;100371.63;108795;1256;57395;-62
2023/08/20 10:11:18;;;;;;;3.50;1.90;;;;;;;39.98;19.27;100367.11;108957;1256;62938;-63
2023/08/20 10:13:46;;;;;;;4.80;2.60;;;;;;;40.10;20.08;100370.48;108938;1256;58008;-63
2023/08/20 10:16:20;;;;;;;6.10;2.60;;;;;;;40.08;20.73;100364.68;109046;1256;62498;-64
2023/08/20 10:18:48;;;;;;;5.30;2.60;;;;;;;40.19;21.02;100363.29;108960;1256;57431;-62
2023/08/20 10:21:16;;;;;;;5.60;1.70;;;;;;;40.41;20.11;100356.99;108909;1255;58995;-66
2023/08/20 10:23:48;;;;;;;3.90;1.60;;;;;;;40.40;18.86;100356.75;108984;1256;64192;-62
2023/08/20 10:26:16;;;;;;;2.90;1.80;;;;;;;40.33;18.69;100357.89;108971;1256;58469;-63
2023/08/20 10:28:44;;;;;;;4.40;1.80;;;;;;;40.34;18.86;100358.05;108924;1257;64009;-64
2023/08/20 10:31:12;;;;;;;2.90;1.80;;;;;;;40.36;18.95;100351.20;108940;1256;57935;-62
2023/08/20 10:33:46;;;;;;;5.00;2.40;;;;;;;40.46;19.46;100348.18;108873;1255;57539;-65
2023/08/20 10:36:28;;;;;;;2.80;1.60;;;;;;;40.49;19.17;100350.48;109040;1254;64136;-64
2023/08/20 10:38:57;;;;;;;4.10;2.30;;;;;;;40.32;18.87;100344.70;109060;1254;57776;-65
2023/08/20 10:41:26;;;;;;;4.10;2.20;;;;;;;40.13;18.69;100341.70;109132;1254;73515;-64
2023/08/20 10:44:00;;;;;;;6.20;2.00;;;;;;;40.04;19.14;100339.52;109055;1256;57862;-63
2023/08/20 10:46:30;;;;;;;5.30;1.80;;;;;;;40.08;19.31;100336.98;108929;1254;57696;-63
2023/08/20 10:48:59;;;;;;;4.00;2.60;;;;;;;40.17;20.00;100333.08;109025;1254;63017;-65
2023/08/20 10:51:36;;;;;;;5.40;2.60;;;;;;;40.28;19.98;100334.06;109043;1254;59103;-63
2023/08/20 10:54:09;;;;;;;5.20;2.70;;;;;;;40.49;19.67;100323.55;109041;1255;63817;-62
2023/08/20 10:56:55;;;;;;;4.30;2.00;;;;;;;40.84;19.67;100320.94;108875;1257;59093;-63
2023/08/20 10:59:26;;;;;;;3.10;2.00;;;;;;;41.08;19.82;100319.89;109196;1254;57773;-63
2023/08/20 11:01:57;;;;;;;5.10;2.80;;;;;;;41.30;19.85;100312.34;109055;1254;63049;-63
2023/08/20 11:04:32;;;;;;;4.50;2.70;;;;;;;41.48;19.13;100310.56;109065;1254;58336;-62
2023/08/20 11:07:01;;;;;;;3.10;2.40;;;;;;;41.46;18.41;100308.52;108871;1254;63793;-63
2023/08/20 11:09:29;;;;;;;3.80;2.60;;;;;;;41.46;18.80;100305.02;108857;1254;57763;-62
2023/08/20 11:11:57;;;;;;;4.00;2.20;;;;;;;41.71;18.39;100299.12;109065;1254;57365;-63
2023/08/20 11:14:25;;;;;;;6.50;4.40;;;;;;;41.89;18.46;100298.31;109185;1254;64285;-63
2023/08/20 11:16:52;;;;;;;8.80;4.50;;;;;;;41.79;19.30;100291.83;108997;1254;58993;-64
2023/08/20 11:19:22;;;;;;;5.10;3.80;;;;;;;41.69;19.12;100290.67;109060;1256;62497;-63
2023/08/20 11:21:50;;;;;;;6.00;3.50;;;;;;;41.68;19.46;100289.72;109034;1254;57405;-63
2023/08/20 11:24:19;;;;;;;4.20;2.50;;;;;;;41.72;19.04;100287.77;109080;1254;57846;-64
2023/08/20 11:26:47;;;;;;;5.40;2.20;;;;;;;41.60;18.88;100286.14;109033;1254;63814;-64
2023/08/20 11:29:20;;;;;;;3.60;2.30;;;;;;;41.44;18.63;100284.60;109084;1254;58338;-64
2023/08/20 11:31:49;;;;;;;3.50;2.40;;;;;;;41.26;18.71;100279.83;109217;1254;63790;-64
2023/08/20 11:34:18;;;;;;;5.40;2.10;;;;;;;41.17;17.55;100276.08;109032;1255;57430;-66
2023/08/20 11:36:46;;;;;;;5.70;1.60;;;;;;;41.11;17.59;100276.78;109016;1254;59094;-64
2023/08/20 11:39:13;;;;;;;2.30;1.50;;;;;;;41.05;17.29;100275.69;109167;1254;62939;-65
2023/08/20 11:41:41;;;;;;;3.50;2.00;;;;;;;41.03;17.91;100267.64;109064;1254;58437;-66
2023/08/20 11:44:09;;;;;;;6.90;2.20;;;;;;;41.20;17.83;100262.23;108895;1254;63856;-65
2023/08/20 11:46:44;;;;;;;5.00;2.40;;;;;;;41.41;17.96;100256.61;109001;1254;57349;-66